Time;durP1;ratioP1;P1;durP2;ratioP2;P2;SDS_P1;SDS_P2;PMS_P1;PMS_P2;Temp;Humidity;BMP_temperature;BMP_pressure;BME280_temperature;BME280_humidity;BME280_pressure;Samples;Min_cycle;Max_cycle;Signal;HPM_P1;HPM_P2
2022/05/01 00:01:12;;;;;;;16.52;11.80;;;;;;;;;;5115091;28;20028;-82
2022/05/01 00:03:39;;;;;;;13.65;10.77;;;;;;;;;;5115168;28;20027;-81
2022/05/01 00:06:09;;;;;;;15.23;12.45;;;;;;;;;;5131034;27;20019;-82
2022/05/01 00:08:36;;;;;;;15.85;11.48;;;;;;;;;;5135934;27;20023;-82
2022/05/01 00:11:02;;;;;;;17.58;11.50;;;;;;;;;;5128399;27;20463;-82
2022/05/01 00:13:29;;;;;;;13.85;11.73;;;;;;;;;;5115996;28;20075;-81
2022/05/01 00:15:55;;;;;;;16.67;12.15;;;;;;;;;;5130717;28;20020;-81
2022/05/01 00:18:21;;;;;;;15.75;12.15;;;;;;;;;;5135830;28;20027;-81
2022/05/01 00:20:47;;;;;;;16.45;11.88;;;;;;;;;;5121373;28;20038;-82
2022/05/01 00:23:14;;;;;;;14.25;11.25;;;;;;;;;;5115409;28;20077;-82
2022/05/01 00:25:41;;;;;;;15.75;11.57;;;;;;;;;;5115401;28;20389;-82
2022/05/01 00:28:08;;;;;;;12.40;10.88;;;;;;;;;;5115440;28;20482;-82
2022/05/01 00:30:34;;;;;;;14.13;10.73;;;;;;;;;;5123624;28;20039;-81
2022/05/01 00:38:30;;;;;;;14.77;10.80;;;;;;;;;;5119227;28;20018;-82
2022/05/01 00:40:56;;;;;;;14.35;11.35;;;;;;;;;;5118350;27;20165;-82
2022/05/01 00:43:22;;;;;;;13.68;10.18;;;;;;;;;;5118045;28;20020;-81
2022/05/01 00:45:49;;;;;;;13.65;10.65;;;;;;;;;;5128673;27;20023;-81
2022/05/01 00:48:15;;;;;;;15.20;10.57;;;;;;;;;;5140130;27;20050;-82
2022/05/01 00:50:41;;;;;;;12.50;10.27;;;;;;;;;;5138354;27;20084;-82
2022/05/01 00:53:09;;;;;;;13.95;10.88;;;;;;;;;;5138757;27;20464;-82
2022/05/01 00:55:36;;;;;;;13.63;10.75;;;;;;;;;;5137712;27;20402;-81
2022/05/01 00:58:02;;;;;;;13.25;10.60;;;;;;;;;;5137035;27;20023;-82
2022/05/01 01:00:28;;;;;;;14.02;11.15;;;;;;;;;;5122836;27;20038;-81
2022/05/01 01:02:54;;;;;;;15.32;11.18;;;;;;;;;;5139454;27;20464;-82
2022/05/01 01:05:20;;;;;;;14.43;11.18;;;;;;;;;;5137034;27;20024;-81
2022/05/01 01:07:46;;;;;;;15.13;11.60;;;;;;;;;;5138957;27;20027;-81
2022/05/01 01:10:13;;;;;;;16.58;12.25;;;;;;;;;;5139687;27;20046;-82
2022/05/01 01:12:55;;;;;;;15.32;11.93;;;;;;;;;;5123517;27;20430;-82
2022/05/01 01:15:24;;;;;;;16.20;12.00;;;;;;;;;;5123929;27;20030;-82
2022/05/01 01:17:54;;;;;;;20.52;14.30;;;;;;;;;;5138701;27;20138;-82
2022/05/01 01:20:25;;;;;;;18.88;12.95;;;;;;;;;;5136181;27;20029;-82
2022/05/01 01:22:52;;;;;;;17.00;13.32;;;;;;;;;;5126867;27;20073;-82
2022/05/01 01:25:20;;;;;;;17.63;13.50;;;;;;;;;;5117313;27;20428;-82
2022/05/01 01:27:46;;;;;;;19.83;14.48;;;;;;;;;;5119605;27;20031;-81
2022/05/01 01:32:57;;;;;;;17.27;13.10;;;;;;;;;;5137058;27;20038;-82
2022/05/01 01:35:24;;;;;;;18.13;13.50;;;;;;;;;;5137137;27;20038;-82
2022/05/01 01:37:55;;;;;;;17.52;13.88;;;;;;;;;;5137533;27;20038;-82
2022/05/01 01:40:21;;;;;;;20.67;13.77;;;;;;;;;;5138652;27;20418;-82
2022/05/01 01:42:49;;;;;;;18.35;12.98;;;;;;;;;;5137161;27;20123;-81
2022/05/01 01:45:15;;;;;;;20.02;14.25;;;;;;;;;;5136404;27;20024;-82
2022/05/01 01:47:44;;;;;;;17.67;13.18;;;;;;;;;;5137054;27;20023;-82
2022/05/01 01:50:12;;;;;;;19.73;13.63;;;;;;;;;;5135971;27;20015;-82
2022/05/01 01:52:38;;;;;;;16.35;13.10;;;;;;;;;;5118259;27;20110;-82
2022/05/01 01:55:04;;;;;;;17.50;13.35;;;;;;;;;;5126631;27;20026;-82
2022/05/01 01:57:30;;;;;;;17.42;13.50;;;;;;;;;;5135679;27;20025;-82
2022/05/01 01:59:56;;;;;;;17.88;13.35;;;;;;;;;;5138134;27;20106;-82
2022/05/01 02:02:22;;;;;;;17.42;13.38;;;;;;;;;;5134280;27;20027;-81
2022/05/01 02:04:48;;;;;;;16.88;13.07;;;;;;;;;;5136402;27;20030;-81
2022/05/01 02:07:14;;;;;;;17.65;13.48;;;;;;;;;;5137986;27;20525;-81
2022/05/01 02:09:40;;;;;;;16.67;12.95;;;;;;;;;;5121850;27;20020;-82
2022/05/01 02:12:08;;;;;;;18.52;13.48;;;;;;;;;;5116536;27;20027;-81
2022/05/01 02:14:37;;;;;;;16.70;12.80;;;;;;;;;;5135525;27;20031;-81
2022/05/01 02:17:03;;;;;;;17.08;12.98;;;;;;;;;;5137315;27;20062;-82
2022/05/01 02:19:29;;;;;;;16.95;13.10;;;;;;;;;;5123878;27;20051;-82
2022/05/01 02:21:56;;;;;;;14.98;12.48;;;;;;;;;;5117566;27;20027;-82
2022/05/01 02:24:25;;;;;;;17.67;13.07;;;;;;;;;;5118989;27;20043;-82
2022/05/01 02:26:52;;;;;;;17.33;13.07;;;;;;;;;;5137389;27;20083;-81
2022/05/01 02:29:18;;;;;;;17.35;13.02;;;;;;;;;;5137060;27;20041;-82
2022/05/01 02:31:45;;;;;;;16.98;11.70;;;;;;;;;;5135648;27;20383;-82
2022/05/01 02:34:11;;;;;;;16.15;12.55;;;;;;;;;;5122600;27;20055;-82
2022/05/01 02:36:38;;;;;;;16.92;12.93;;;;;;;;;;5117865;28;20043;-82
2022/05/01 02:39:05;;;;;;;16.38;12.43;;;;;;;;;;5118393;27;20046;-82
2022/05/01 02:41:31;;;;;;;17.65;13.48;;;;;;;;;;5117202;28;20065;-82
2022/05/01 02:43:58;;;;;;;20.50;13.48;;;;;;;;;;5117566;27;20031;-82
2022/05/01 02:46:25;;;;;;;19.27;13.30;;;;;;;;;;5122479;27;20026;-81
2022/05/01 02:48:51;;;;;;;17.58;13.05;;;;;;;;;;5133134;27;20027;-81
2022/05/01 02:51:17;;;;;;;16.73;12.90;;;;;;;;;;5121384;27;20045;-83
2022/05/01 02:53:43;;;;;;;16.15;12.07;;;;;;;;;;5123884;27;20542;-82
2022/05/01 02:56:09;;;;;;;19.08;13.40;;;;;;;;;;5124827;27;20107;-82
2022/05/01 02:58:36;;;;;;;17.70;12.95;;;;;;;;;;5116791;28;20390;-82
2022/05/01 03:01:02;;;;;;;15.70;12.57;;;;;;;;;;5117076;27;20358;-81
2022/05/01 03:03:28;;;;;;;16.65;12.57;;;;;;;;;;5117400;27;20091;-82
2022/05/01 03:05:56;;;;;;;16.63;13.18;;;;;;;;;;5122672;27;20122;-82
2022/05/01 03:08:22;;;;;;;16.67;12.77;;;;;;;;;;5117118;27;20011;-82
2022/05/01 03:10:48;;;;;;;16.83;12.27;;;;;;;;;;5116831;27;20096;-82
2022/05/01 03:13:14;;;;;;;17.00;13.38;;;;;;;;;;5115701;28;20062;-82
2022/05/01 03:15:41;;;;;;;17.25;13.27;;;;;;;;;;5115881;28;20090;-82
2022/05/01 03:23:37;;;;;;;16.60;12.82;;;;;;;;;;5137319;27;20092;-82
2022/05/01 03:26:03;;;;;;;17.02;12.38;;;;;;;;;;5134418;27;20022;-82
2022/05/01 03:28:29;;;;;;;16.70;12.23;;;;;;;;;;5135635;27;20015;-82
2022/05/01 03:30:56;;;;;;;16.30;12.35;;;;;;;;;;5136644;27;20527;-82
2022/05/01 03:33:23;;;;;;;17.13;13.02;;;;;;;;;;5119777;27;20097;-82
2022/05/01 03:35:49;;;;;;;16.15;12.48;;;;;;;;;;5116554;27;20027;-82
2022/05/01 03:38:15;;;;;;;15.45;11.50;;;;;;;;;;5117403;27;20032;-82
2022/05/01 03:40:42;;;;;;;17.05;12.77;;;;;;;;;;5131870;27;20027;-82
2022/05/01 03:43:08;;;;;;;16.38;12.02;;;;;;;;;;5119280;27;20066;-82
2022/05/01 03:45:34;;;;;;;16.73;12.50;;;;;;;;;;5134813;27;20019;-82
2022/05/01 03:48:01;;;;;;;16.48;12.25;;;;;;;;;;5121675;27;20391;-82
2022/05/01 03:50:27;;;;;;;17.15;12.55;;;;;;;;;;5115726;28;20485;-82
2022/05/01 03:52:53;;;;;;;17.90;12.82;;;;;;;;;;5132046;27;20016;-82
2022/05/01 03:55:19;;;;;;;17.65;12.43;;;;;;;;;;5125052;27;20398;-82
2022/05/01 03:57:45;;;;;;;15.65;11.77;;;;;;;;;;5116557;28;20455;-82
2022/05/01 04:00:18;;;;;;;15.80;11.25;;;;;;;;;;5116165;28;20015;-82
2022/05/01 04:02:44;;;;;;;17.08;13.10;;;;;;;;;;5124985;27;20236;-82
2022/05/01 04:05:10;;;;;;;15.80;12.00;;;;;;;;;;5129164;27;20479;-82
2022/05/01 04:07:37;;;;;;;16.63;12.45;;;;;;;;;;5124347;27;20019;-82
2022/05/01 04:10:03;;;;;;;15.45;11.45;;;;;;;;;;5134979;27;20043;-82
2022/05/01 04:12:29;;;;;;;16.38;12.93;;;;;;;;;;5129278;27;20032;-82
2022/05/01 04:14:58;;;;;;;16.27;12.95;;;;;;;;;;5135194;28;20024;-82
2022/05/01 04:17:24;;;;;;;15.55;11.68;;;;;;;;;;5133476;28;20054;-82
2022/05/01 04:19:50;;;;;;;16.40;11.68;;;;;;;;;;5134734;28;20118;-82
2022/05/01 04:22:17;;;;;;;16.92;12.25;;;;;;;;;;5135195;28;20023;-82
2022/05/01 04:24:43;;;;;;;15.18;11.45;;;;;;;;;;5114025;28;20049;-82
2022/05/01 04:27:09;;;;;;;15.63;11.65;;;;;;;;;;5115538;28;20399;-82
2022/05/01 04:29:38;;;;;;;14.38;11.27;;;;;;;;;;5129842;27;20026;-82
2022/05/01 04:32:05;;;;;;;16.13;12.27;;;;;;;;;;5124864;27;20020;-82
2022/05/01 04:34:32;;;;;;;15.68;12.40;;;;;;;;;;5123242;28;20115;-82
2022/05/01 04:36:58;;;;;;;16.77;12.25;;;;;;;;;;5117079;28;20030;-82
2022/05/01 04:39:24;;;;;;;16.38;12.38;;;;;;;;;;5122213;28;20027;-82
2022/05/01 04:41:50;;;;;;;15.65;12.35;;;;;;;;;;5126078;28;20027;-82
2022/05/01 04:44:16;;;;;;;17.02;12.00;;;;;;;;;;5115002;28;20019;-81
2022/05/01 04:46:43;;;;;;;17.40;11.95;;;;;;;;;;5120565;28;20083;-82
2022/05/01 04:49:10;;;;;;;16.30;11.57;;;;;;;;;;5124950;28;20049;-82
2022/05/01 04:51:36;;;;;;;16.88;12.50;;;;;;;;;;5116207;28;20434;-82
2022/05/01 04:54:02;;;;;;;15.57;11.73;;;;;;;;;;5113784;28;20086;-82
2022/05/01 04:59:13;;;;;;;22.17;13.15;;;;;;;;;;5137134;28;20076;-81
2022/05/01 05:01:41;;;;;;;16.08;12.00;;;;;;;;;;5133372;28;20091;-81
2022/05/01 05:04:07;;;;;;;16.13;12.05;;;;;;;;;;5157798;27;20072;-82
2022/05/01 05:06:33;;;;;;;17.70;12.05;;;;;;;;;;5139379;28;20054;-81
2022/05/01 05:11:44;;;;;;;16.60;12.07;;;;;;;;;;5136827;28;20035;-81
2022/05/01 05:14:10;;;;;;;15.27;11.68;;;;;;;;;;5150895;27;20024;-82
2022/05/01 05:16:36;;;;;;;15.05;12.10;;;;;;;;;;5134193;28;20066;-81
2022/05/01 05:19:02;;;;;;;17.13;12.00;;;;;;;;;;5117181;28;20031;-82
2022/05/01 05:21:28;;;;;;;17.55;12.25;;;;;;;;;;5120302;28;20497;-82
2022/05/01 05:23:56;;;;;;;15.10;11.18;;;;;;;;;;5119674;28;20081;-82
2022/05/01 05:26:22;;;;;;;15.82;11.95;;;;;;;;;;5127563;27;20027;-80
2022/05/01 05:28:48;;;;;;;15.93;12.32;;;;;;;;;;5121900;27;20019;-81
2022/05/01 05:31:14;;;;;;;16.35;12.40;;;;;;;;;;5127869;27;20027;-82
2022/05/01 05:33:40;;;;;;;16.45;12.40;;;;;;;;;;5126570;27;20030;-81
2022/05/01 05:36:06;;;;;;;16.58;13.10;;;;;;;;;;5132868;27;20113;-81
2022/05/01 05:38:33;;;;;;;16.55;13.00;;;;;;;;;;5121131;27;20059;-81
2022/05/01 05:40:59;;;;;;;14.80;11.85;;;;;;;;;;5139407;27;20023;-81
2022/05/01 05:43:25;;;;;;;14.93;12.25;;;;;;;;;;5140440;27;20079;-81
2022/05/01 05:45:51;;;;;;;17.70;12.65;;;;;;;;;;5126538;27;20121;-81
2022/05/01 05:48:17;;;;;;;16.70;13.13;;;;;;;;;;5132694;28;20034;-81
2022/05/01 05:50:43;;;;;;;16.77;13.85;;;;;;;;;;5155284;27;20062;-82
2022/05/01 05:53:09;;;;;;;15.80;12.02;;;;;;;;;;5144844;27;20035;-81
2022/05/01 05:55:35;;;;;;;16.15;12.68;;;;;;;;;;5153499;27;20031;-82
2022/05/01 05:58:02;;;;;;;18.02;12.88;;;;;;;;;;5148193;27;20015;-82
2022/05/01 06:00:28;;;;;;;16.42;11.98;;;;;;;;;;5142959;27;20026;-81
2022/05/01 06:02:54;;;;;;;16.90;12.70;;;;;;;;;;5141041;27;20049;-81
2022/05/01 06:05:20;;;;;;;15.55;12.23;;;;;;;;;;5133666;27;20118;-81
2022/05/01 06:07:46;;;;;;;17.20;13.40;;;;;;;;;;5126294;27;20051;-81
2022/05/01 06:10:12;;;;;;;16.13;12.10;;;;;;;;;;5119892;28;20044;-81
2022/05/01 06:12:44;;;;;;;17.63;13.23;;;;;;;;;;5121563;27;20034;-81
2022/05/01 06:15:10;;;;;;;17.02;13.88;;;;;;;;;;5133837;27;20038;-81
2022/05/01 06:17:37;;;;;;;17.45;12.95;;;;;;;;;;5138035;27;20035;-82
2022/05/01 06:20:04;;;;;;;18.65;13.95;;;;;;;;;;5139626;27;20023;-82
2022/05/01 06:22:30;;;;;;;16.63;13.75;;;;;;;;;;5129105;27;20023;-81
2022/05/01 06:24:56;;;;;;;16.08;13.00;;;;;;;;;;5126682;27;20019;-82
2022/05/01 06:27:22;;;;;;;18.42;13.88;;;;;;;;;;5122631;27;20030;-81
2022/05/01 06:29:48;;;;;;;17.67;13.57;;;;;;;;;;5139901;27;20023;-82
2022/05/01 06:32:19;;;;;;;17.60;13.15;;;;;;;;;;5139655;27;20048;-81
2022/05/01 06:34:45;;;;;;;18.00;13.85;;;;;;;;;;5138862;27;20015;-81
2022/05/01 06:37:11;;;;;;;16.02;12.35;;;;;;;;;;5132505;27;20027;-82
2022/05/01 06:39:37;;;;;;;17.27;12.75;;;;;;;;;;5119920;28;20028;-82
2022/05/01 06:42:04;;;;;;;16.92;13.27;;;;;;;;;;5118286;27;20106;-81
2022/05/01 06:44:30;;;;;;;16.85;12.43;;;;;;;;;;5128762;27;20086;-81
2022/05/01 06:46:57;;;;;;;17.25;12.77;;;;;;;;;;5135815;27;20715;-81
2022/05/01 06:49:23;;;;;;;16.65;12.68;;;;;;;;;;5118245;27;20028;-81
2022/05/01 06:51:49;;;;;;;17.20;13.35;;;;;;;;;;5117431;28;20104;-81
2022/05/01 06:54:15;;;;;;;16.10;12.00;;;;;;;;;;5117190;28;20078;-82
2022/05/01 06:56:44;;;;;;;16.40;12.15;;;;;;;;;;5132059;27;20088;-81
2022/05/01 06:59:10;;;;;;;15.38;12.80;;;;;;;;;;5117159;27;20035;-82
2022/05/01 07:01:36;;;;;;;17.33;12.88;;;;;;;;;;5114961;28;20387;-81
2022/05/01 07:04:02;;;;;;;15.15;12.57;;;;;;;;;;5115720;27;20020;-81
2022/05/01 07:06:28;;;;;;;16.10;12.75;;;;;;;;;;5118993;27;20023;-81
2022/05/01 07:08:54;;;;;;;15.63;12.70;;;;;;;;;;5116496;28;20436;-82
2022/05/01 07:11:20;;;;;;;15.15;12.77;;;;;;;;;;5115477;27;20043;-82
2022/05/01 07:13:46;;;;;;;15.35;12.57;;;;;;;;;;5119468;27;20490;-82
2022/05/01 07:16:12;;;;;;;17.13;11.85;;;;;;;;;;5133162;27;20074;-84
2022/05/01 07:18:37;;;;;;;15.23;11.95;;;;;;;;;;5131312;27;20103;-82
2022/05/01 07:21:04;;;;;;;15.68;12.27;;;;;;;;;;5135657;27;20055;-82
2022/05/01 07:23:30;;;;;;;14.32;11.57;;;;;;;;;;5136171;27;20176;-83
2022/05/01 07:25:57;;;;;;;15.95;12.65;;;;;;;;;;5136053;27;20035;-83
2022/05/01 07:28:23;;;;;;;16.38;11.63;;;;;;;;;;5136156;27;20031;-82
2022/05/01 07:30:49;;;;;;;15.20;11.90;;;;;;;;;;5134928;27;20015;-83
2022/05/01 07:33:15;;;;;;;15.35;12.50;;;;;;;;;;5135093;27;20022;-83
2022/05/01 07:35:41;;;;;;;15.85;12.40;;;;;;;;;;5117084;28;20024;-83
2022/05/01 07:38:07;;;;;;;16.50;12.75;;;;;;;;;;5120834;27;20029;-83
2022/05/01 07:40:33;;;;;;;16.77;13.68;;;;;;;;;;5121270;27;20444;-83
2022/05/01 07:42:59;;;;;;;17.10;13.15;;;;;;;;;;5135120;27;20094;-83
2022/05/01 07:45:25;;;;;;;16.50;13.65;;;;;;;;;;5118177;27;20059;-83
2022/05/01 07:47:51;;;;;;;16.85;13.57;;;;;;;;;;5119803;27;20019;-83
2022/05/01 07:50:18;;;;;;;17.25;13.57;;;;;;;;;;5135154;27;20623;-83
2022/05/01 07:52:44;;;;;;;16.30;12.75;;;;;;;;;;5128785;27;20031;-83
2022/05/01 07:55:10;;;;;;;17.75;12.65;;;;;;;;;;5125424;27;20393;-83
2022/05/01 07:57:36;;;;;;;16.35;13.10;;;;;;;;;;5121121;27;20023;-83
2022/05/01 08:00:02;;;;;;;15.82;12.75;;;;;;;;;;5137246;27;20027;-83
2022/05/01 08:04:27;;;;;;;17.05;13.25;;;;;;;;;;5136235;27;20016;-83
2022/05/01 08:05:23;;;;;;;16.65;12.52;;;;;;;;;;5118780;27;20040;-82
2022/05/01 08:07:50;;;;;;;14.57;12.52;;;;;;;;;;5116469;28;20012;-81
2022/05/01 08:10:16;;;;;;;16.65;12.57;;;;;;;;;;5116803;28;20071;-81
2022/05/01 08:12:42;;;;;;;16.85;13.63;;;;;;;;;;5119235;28;20055;-81
2022/05/01 08:15:09;;;;;;;17.13;13.85;;;;;;;;;;5117943;28;20100;-81
2022/05/01 08:17:35;;;;;;;17.10;13.07;;;;;;;;;;5128541;27;20035;-81
2022/05/01 08:22:46;;;;;;;15.23;12.93;;;;;;;;;;5131168;28;20528;-81
2022/05/01 08:25:12;;;;;;;15.70;12.85;;;;;;;;;;5114845;28;20063;-81
2022/05/01 08:27:41;;;;;;;15.45;13.05;;;;;;;;;;5117029;28;20051;-81
2022/05/01 08:30:07;;;;;;;17.08;13.48;;;;;;;;;;5121544;28;20050;-81
2022/05/01 08:32:33;;;;;;;14.63;12.80;;;;;;;;;;5116146;28;20505;-81
2022/05/01 08:35:00;;;;;;;16.63;13.85;;;;;;;;;;5116256;28;20032;-81
2022/05/01 08:37:26;;;;;;;14.70;12.40;;;;;;;;;;5117071;28;20024;-84
2022/05/01 08:39:52;;;;;;;15.90;12.75;;;;;;;;;;5117100;28;20042;-81
2022/05/01 08:42:18;;;;;;;14.43;11.98;;;;;;;;;;5116291;28;20031;-82
2022/05/01 08:44:45;;;;;;;14.85;12.18;;;;;;;;;;5114843;28;20016;-81
2022/05/01 08:47:17;;;;;;;14.90;11.95;;;;;;;;;;5124253;28;20023;-81
2022/05/01 08:49:45;;;;;;;14.05;12.35;;;;;;;;;;5119188;28;20107;-81
2022/05/01 08:52:12;;;;;;;16.85;13.45;;;;;;;;;;5118084;28;20474;-81
2022/05/01 08:54:38;;;;;;;16.02;13.02;;;;;;;;;;5118596;28;20110;-81
2022/05/01 08:57:04;;;;;;;13.98;12.07;;;;;;;;;;5120835;27;20023;-81
2022/05/01 08:59:31;;;;;;;13.80;11.63;;;;;;;;;;5135003;27;20027;-82
2022/05/01 09:01:58;;;;;;;16.85;13.45;;;;;;;;;;5140693;27;20051;-81
2022/05/01 09:04:25;;;;;;;15.50;13.45;;;;;;;;;;5139848;27;20015;-81
2022/05/01 09:06:52;;;;;;;15.50;13.10;;;;;;;;;;5135447;27;20102;-81
2022/05/01 09:09:19;;;;;;;14.85;11.93;;;;;;;;;;5140335;27;20015;-81
2022/05/01 09:14:31;;;;;;;15.38;13.60;;;;;;;;;;5119971;28;20452;-80
2022/05/01 09:17:09;;;;;;;17.25;12.55;;;;;;;;;;5129785;27;20031;-81
2022/05/01 09:19:35;;;;;;;14.48;12.98;;;;;;;;;;5141720;27;20035;-80
2022/05/01 09:22:01;;;;;;;17.48;13.55;;;;;;;;;;5138342;27;20111;-81
2022/05/01 09:24:28;;;;;;;14.85;12.85;;;;;;;;;;5120527;28;20067;-80
2022/05/01 09:26:55;;;;;;;15.30;13.05;;;;;;;;;;5122920;27;20653;-80
2022/05/01 09:29:22;;;;;;;14.40;12.35;;;;;;;;;;5140089;27;20083;-81
2022/05/01 09:31:48;;;;;;;16.75;13.35;;;;;;;;;;5127045;27;20027;-81
2022/05/01 09:34:21;;;;;;;18.05;12.68;;;;;;;;;;5119305;28;20106;-81
2022/05/01 09:36:47;;;;;;;15.48;12.18;;;;;;;;;;5125200;27;20019;-81
2022/05/01 09:39:18;;;;;;;14.45;11.93;;;;;;;;;;5140716;27;20098;-83
2022/05/01 09:41:44;;;;;;;15.95;12.32;;;;;;;;;;5139173;27;20012;-81
2022/05/01 09:44:13;;;;;;;13.07;11.25;;;;;;;;;;5138895;27;20029;-80
2022/05/01 09:46:40;;;;;;;14.30;11.82;;;;;;;;;;5138438;27;20027;-83
2022/05/01 09:49:06;;;;;;;13.73;11.23;;;;;;;;;;5120629;28;20035;-82
2022/05/01 09:51:38;;;;;;;13.93;11.23;;;;;;;;;;5137619;27;20014;-83
2022/05/01 09:54:06;;;;;;;15.55;10.95;;;;;;;;;;5142341;27;20027;-83
2022/05/01 09:56:44;;;;;;;15.18;11.75;;;;;;;;;;5124660;27;20447;-82
2022/05/01 09:59:11;;;;;;;13.77;11.05;;;;;;;;;;5123252;27;20034;-83
2022/05/01 10:01:37;;;;;;;14.57;10.95;;;;;;;;;;5137068;27;20069;-81
2022/05/01 10:04:03;;;;;;;14.20;10.45;;;;;;;;;;5137188;27;20031;-80
2022/05/01 10:06:31;;;;;;;13.27;11.25;;;;;;;;;;5134069;27;20608;-82
2022/05/01 10:08:57;;;;;;;14.70;11.30;;;;;;;;;;5138449;27;20023;-81
2022/05/01 10:11:28;;;;;;;16.05;12.32;;;;;;;;;;5137957;27;20047;-81
2022/05/01 10:13:55;;;;;;;13.68;11.15;;;;;;;;;;5118878;27;20031;-81
2022/05/01 10:16:22;;;;;;;13.43;11.40;;;;;;;;;;5124825;27;20050;-82
2022/05/01 10:18:48;;;;;;;13.40;10.55;;;;;;;;;;5123474;27;20348;-81
2022/05/01 10:21:14;;;;;;;16.10;11.90;;;;;;;;;;5122025;27;20402;-82
2022/05/01 10:23:41;;;;;;;14.85;11.43;;;;;;;;;;5121521;27;20023;-82
2022/05/01 10:26:14;;;;;;;15.93;12.10;;;;;;;;;;5127348;27;20095;-82
2022/05/01 10:28:53;;;;;;;14.85;12.70;;;;;;;;;;5129564;27;20491;-82
2022/05/01 10:34:07;;;;;;;15.57;13.85;;;;;;;;;;5137771;27;20050;-82
2022/05/01 10:36:39;;;;;;;15.70;13.65;;;;;;;;;;5127319;27;20035;-83
2022/05/01 10:39:17;;;;;;;15.52;12.57;;;;;;;;;;5116076;28;20113;-82
2022/05/01 10:41:44;;;;;;;17.83;14.02;;;;;;;;;;5115842;27;20540;-82
2022/05/01 10:44:27;;;;;;;16.40;13.25;;;;;;;;;;5135083;27;20087;-82
2022/05/01 10:46:54;;;;;;;15.10;12.40;;;;;;;;;;5133613;27;20027;-82
2022/05/01 10:49:34;;;;;;;14.50;12.95;;;;;;;;;;5137689;27;20367;-83
2022/05/01 10:52:19;;;;;;;15.57;13.63;;;;;;;;;;5115738;27;20027;-81
2022/05/01 10:54:51;;;;;;;16.02;14.32;;;;;;;;;;5117444;27;20015;-83
2022/05/01 10:57:18;;;;;;;15.98;12.93;;;;;;;;;;5125683;27;20037;-83
2022/05/01 10:59:48;;;;;;;17.65;14.88;;;;;;;;;;5132168;27;20027;-82
2022/05/01 11:02:22;;;;;;;16.20;14.50;;;;;;;;;;5135040;27;20015;-82
2022/05/01 11:04:49;;;;;;;14.98;13.30;;;;;;;;;;5133067;27;20034;-82
2022/05/01 11:07:16;;;;;;;16.00;13.68;;;;;;;;;;5123046;27;20378;-83
2022/05/01 11:09:46;;;;;;;14.25;11.85;;;;;;;;;;5116287;28;20526;-82
2022/05/01 11:12:14;;;;;;;15.60;13.75;;;;;;;;;;5116765;28;20023;-82
2022/05/01 11:14:50;;;;;;;15.30;12.85;;;;;;;;;;5124424;27;20019;-82
2022/05/01 11:17:27;;;;;;;14.50;11.63;;;;;;;;;;5116119;27;20034;-82
2022/05/01 11:19:53;;;;;;;14.45;11.93;;;;;;;;;;5117754;27;20057;-82
2022/05/01 11:22:27;;;;;;;14.43;12.60;;;;;;;;;;5131666;27;20201;-82
2022/05/01 11:24:53;;;;;;;14.38;11.73;;;;;;;;;;5135451;27;20023;-82
2022/05/01 11:27:21;;;;;;;14.20;11.95;;;;;;;;;;5139056;27;20492;-82
2022/05/01 11:30:06;;;;;;;14.25;12.05;;;;;;;;;;5134272;27;20020;-82
2022/05/01 11:32:45;;;;;;;13.15;10.85;;;;;;;;;;5121001;27;20116;-82
2022/05/01 11:35:11;;;;;;;14.23;11.23;;;;;;;;;;5128110;27;20091;-83
2022/05/01 11:37:48;;;;;;;14.57;11.35;;;;;;;;;;5133075;27;20019;-84
2022/05/01 11:40:17;;;;;;;13.68;10.40;;;;;;;;;;5124016;27;20024;-82
2022/05/01 11:42:43;;;;;;;11.48;9.93;;;;;;;;;;5123413;27;20055;-82
2022/05/01 11:45:11;;;;;;;12.65;9.48;;;;;;;;;;5143451;27;20511;-82
2022/05/01 11:47:37;;;;;;;12.15;9.65;;;;;;;;;;5131656;27;20431;-82
2022/05/01 11:50:05;;;;;;;12.43;9.55;;;;;;;;;;5124148;27;20027;-82
2022/05/01 11:52:36;;;;;;;11.43;8.85;;;;;;;;;;5117865;27;20111;-82
2022/05/01 11:55:06;;;;;;;11.23;8.88;;;;;;;;;;5119089;27;20027;-82
2022/05/01 12:03:12;;;;;;;14.00;8.50;;;;;;;;;;5124922;27;20037;-81
2022/05/01 12:05:46;;;;;;;10.98;7.95;;;;;;;;;;5116428;27;20038;-82
2022/05/01 12:08:15;;;;;;;11.57;8.60;;;;;;;;;;5126730;27;20466;-83
2022/05/01 12:10:42;;;;;;;15.88;11.18;;;;;;;;;;5115571;28;20046;-83
2022/05/01 12:13:24;;;;;;;13.40;9.18;;;;;;;;;;5115052;28;20618;-81
2022/05/01 12:15:51;;;;;;;8.45;6.53;;;;;;;;;;5113816;28;20125;-82
2022/05/01 12:18:18;;;;;;;8.75;5.95;;;;;;;;;;5128667;28;20047;-82
2022/05/01 12:20:44;;;;;;;8.05;5.63;;;;;;;;;;5135707;28;20023;-82
2022/05/01 12:23:14;;;;;;;8.18;6.15;;;;;;;;;;5136009;28;20367;-83
2022/05/01 12:25:44;;;;;;;9.10;6.35;;;;;;;;;;5128071;28;20040;-82
2022/05/01 12:28:11;;;;;;;9.73;6.22;;;;;;;;;;5135043;28;20019;-83
2022/05/01 12:30:37;;;;;;;8.65;6.07;;;;;;;;;;5135875;27;20011;-83
2022/05/01 12:33:04;;;;;;;8.65;6.35;;;;;;;;;;5119374;28;20032;-83
2022/05/01 12:35:51;;;;;;;9.00;7.28;;;;;;;;;;5118844;28;20028;-82
2022/05/01 12:38:17;;;;;;;8.50;6.95;;;;;;;;;;5140002;27;20019;-82
2022/05/01 12:46:29;;;;;;;11.32;8.35;;;;;;;;;;5122785;27;20089;-83
2022/05/01 12:48:56;;;;;;;11.30;8.07;;;;;;;;;;5135919;27;20027;-82
2022/05/01 12:51:24;;;;;;;11.32;9.20;;;;;;;;;;5128412;27;20038;-82
2022/05/01 12:53:50;;;;;;;9.82;7.95;;;;;;;;;;5139411;27;20015;-82
2022/05/01 12:56:20;;;;;;;12.63;7.95;;;;;;;;;;5137255;27;20103;-82
2022/05/01 12:58:47;;;;;;;9.18;6.00;;;;;;;;;;5118538;27;20023;-82
2022/05/01 13:01:24;;;;;;;9.30;6.32;;;;;;;;;;5130684;27;20027;-82
2022/05/01 13:03:50;;;;;;;8.75;6.78;;;;;;;;;;5140135;27;20397;-82
2022/05/01 13:06:17;;;;;;;8.13;6.28;;;;;;;;;;5137039;27;20019;-82
2022/05/01 13:08:44;;;;;;;8.02;6.43;;;;;;;;;;5122367;27;20115;-83
2022/05/01 13:11:23;;;;;;;7.55;5.95;;;;;;;;;;5132830;27;20047;-82
2022/05/01 13:13:49;;;;;;;8.55;6.28;;;;;;;;;;5123498;27;20015;-83
2022/05/01 13:16:16;;;;;;;8.38;6.80;;;;;;;;;;5124975;27;20028;-82
2022/05/01 13:18:43;;;;;;;7.70;6.05;;;;;;;;;;5132421;27;20019;-83
2022/05/01 13:21:09;;;;;;;8.90;6.53;;;;;;;;;;5136693;27;20026;-83
2022/05/01 13:23:35;;;;;;;8.68;6.80;;;;;;;;;;5136168;27;20650;-83
2022/05/01 13:26:03;;;;;;;8.88;6.80;;;;;;;;;;5134154;27;20547;-82
2022/05/01 13:28:30;;;;;;;8.95;7.30;;;;;;;;;;5118811;27;20043;-82
2022/05/01 13:31:09;;;;;;;9.63;7.50;;;;;;;;;;5129233;27;20024;-82
2022/05/01 13:33:35;;;;;;;8.80;6.45;;;;;;;;;;5135813;27;20028;-82
2022/05/01 13:36:01;;;;;;;9.98;7.30;;;;;;;;;;5133771;27;20020;-82
2022/05/01 13:38:27;;;;;;;10.55;7.43;;;;;;;;;;5122484;27;20089;-82
2022/05/01 13:46:23;;;;;;;9.88;7.60;;;;;;;;;;5124030;27;20463;-82
2022/05/01 13:48:52;;;;;;;9.40;6.88;;;;;;;;;;5122075;27;20020;-83
2022/05/01 13:51:18;;;;;;;8.30;6.60;;;;;;;;;;5130009;27;20407;-82
2022/05/01 13:53:44;;;;;;;6.93;5.45;;;;;;;;;;5126329;27;20031;-83
2022/05/01 13:56:11;;;;;;;7.28;5.07;;;;;;;;;;5121980;27;20023;-82
2022/05/01 13:58:37;;;;;;;6.60;4.50;;;;;;;;;;5118657;28;20153;-83
2022/05/01 14:01:04;;;;;;;6.05;4.25;;;;;;;;;;5119151;28;20028;-83
2022/05/01 14:03:30;;;;;;;6.88;4.70;;;;;;;;;;5118708;28;20054;-82
2022/05/01 14:05:56;;;;;;;6.18;4.50;;;;;;;;;;5118509;28;20091;-83
2022/05/01 14:08:22;;;;;;;7.13;4.90;;;;;;;;;;5120594;27;20015;-83
2022/05/01 14:10:48;;;;;;;8.95;6.70;;;;;;;;;;5118581;28;20122;-81
2022/05/01 14:13:14;;;;;;;7.75;6.32;;;;;;;;;;5144890;27;20020;-82
2022/05/01 14:15:40;;;;;;;9.48;7.35;;;;;;;;;;5160308;27;20019;-84
2022/05/01 14:18:09;;;;;;;9.48;7.63;;;;;;;;;;5157192;27;20028;-83
2022/05/01 14:20:35;;;;;;;7.95;6.45;;;;;;;;;;5158629;27;20024;-82
2022/05/01 14:23:03;;;;;;;8.60;6.88;;;;;;;;;;5158554;27;20035;-82
2022/05/01 14:25:29;;;;;;;9.48;7.47;;;;;;;;;;5143344;27;20020;-82
2022/05/01 14:27:55;;;;;;;9.95;7.57;;;;;;;;;;5117431;28;20019;-82
2022/05/01 14:30:21;;;;;;;9.60;7.63;;;;;;;;;;5118779;28;20063;-82
2022/05/01 14:32:51;;;;;;;8.70;6.63;;;;;;;;;;5118189;28;20090;-82
2022/05/01 14:35:19;;;;;;;8.10;5.93;;;;;;;;;;5118077;27;20036;-82
2022/05/01 14:37:53;;;;;;;6.63;5.00;;;;;;;;;;5116042;28;20028;-83
2022/05/01 14:40:19;;;;;;;5.78;4.15;;;;;;;;;;5116062;28;20024;-82
2022/05/01 14:42:48;;;;;;;7.20;4.90;;;;;;;;;;5133012;27;20560;-83
2022/05/01 14:45:15;;;;;;;6.40;4.75;;;;;;;;;;5141355;27;20045;-83
2022/05/01 14:47:44;;;;;;;6.78;4.63;;;;;;;;;;5130119;27;20012;-82
2022/05/01 14:50:12;;;;;;;7.88;4.97;;;;;;;;;;5137832;27;20019;-83
2022/05/01 14:52:39;;;;;;;6.50;5.03;;;;;;;;;;5136847;27;20363;-83
2022/05/01 14:55:07;;;;;;;7.47;5.38;;;;;;;;;;5146467;27;20054;-83
2022/05/01 14:57:34;;;;;;;8.98;6.28;;;;;;;;;;5148910;27;20023;-82
2022/05/01 15:08:19;;;;;;;8.95;7.05;;;;;;;;;;5118623;28;20115;-82
2022/05/01 15:10:45;;;;;;;8.07;6.45;;;;;;;;;;5118750;28;20548;-82
2022/05/01 15:13:12;;;;;;;11.70;8.75;;;;;;;;;;5137357;27;20023;-82
2022/05/01 15:15:44;;;;;;;8.77;7.03;;;;;;;;;;5133792;27;20115;-82